sensor_id;sensor_type;location;lat;lon;timestamp;temperature;humidity
6379;DHT22;3222;48.858;10.128;2024-01-30T00:02:17;6.50;99.90
6379;DHT22;3222;48.858;10.128;2024-01-30T00:04:43;6.50;99.90
6379;DHT22;3222;48.858;10.128;2024-01-30T00:07:08;6.40;99.90
6379;DHT22;3222;48.858;10.128;2024-01-30T00:09:34;6.40;99.90
6379;DHT22;3222;48.858;10.128;2024-01-30T00:12:00;6.30;99.90
6379;DHT22;3222;48.858;10.128;2024-01-30T00:14:26;6.30;99.90
6379;DHT22;3222;48.858;10.128;2024-01-30T00:16:52;6.30;99.90
6379;DHT22;3222;48.858;10.128;2024-01-30T00:19:17;6.20;99.90
6379;DHT22;3222;48.858;10.128;2024-01-30T00:21:43;6.20;99.90
6379;DHT22;3222;48.858;10.128;2024-01-30T00:24:09;6.20;99.90
6379;DHT22;3222;48.858;10.128;2024-01-30T00:26:34;6.20;99.90
6379;DHT22;3222;48.858;10.128;2024-01-30T00:29:00;6.20;99.90
6379;DHT22;3222;48.858;10.128;2024-01-30T00:31:26;6.20;99.90
6379;DHT22;3222;48.858;10.128;2024-01-30T00:33:52;6.20;99.90
6379;DHT22;3222;48.858;10.128;2024-01-30T00:36:17;6.20;99.90
6379;DHT22;3222;48.858;10.128;2024-01-30T00:38:43;6.20;99.90
6379;DHT22;3222;48.858;10.128;2024-01-30T00:41:09;6.20;99.90
6379;DHT22;3222;48.858;10.128;2024-01-30T00:43:35;6.20;99.90
6379;DHT22;3222;48.858;10.128;2024-01-30T00:46:01;6.10;99.90
6379;DHT22;3222;48.858;10.128;2024-01-30T00:48:27;6.10;99.90
6379;DHT22;3222;48.858;10.128;2024-01-30T00:50:52;6.10;99.90
6379;DHT22;3222;48.858;10.128;2024-01-30T00:53:18;6.00;99.90
6379;DHT22;3222;48.858;10.128;2024-01-30T00:55:44;6.00;99.90
6379;DHT22;3222;48.858;10.128;2024-01-30T00:58:09;6.00;99.90
6379;DHT22;3222;48.858;10.128;2024-01-30T01:00:35;6.00;99.90
6379;DHT22;3222;48.858;10.128;2024-01-30T01:03:01;6.00;99.90
6379;DHT22;3222;48.858;10.128;2024-01-30T01:05:27;6.00;99.90
6379;DHT22;3222;48.858;10.128;2024-01-30T01:07:52;6.00;99.90
6379;DHT22;3222;48.858;10.128;2024-01-30T01:10:18;6.00;99.90
6379;DHT22;3222;48.858;10.128;2024-01-30T01:12:48;6.00;99.90
6379;DHT22;3222;48.858;10.128;2024-01-30T01:15:13;5.90;99.90
6379;DHT22;3222;48.858;10.128;2024-01-30T01:17:39;5.90;99.90
6379;DHT22;3222;48.858;10.128;2024-01-30T01:20:08;5.90;99.90
6379;DHT22;3222;48.858;10.128;2024-01-30T01:22:34;5.80;99.90
6379;DHT22;3222;48.858;10.128;2024-01-30T01:25:00;5.80;99.90
6379;DHT22;3222;48.858;10.128;2024-01-30T01:27:26;5.70;99.90
6379;DHT22;3222;48.858;10.128;2024-01-30T01:29:53;5.80;99.90
6379;DHT22;3222;48.858;10.128;2024-01-30T01:32:19;5.80;99.90
6379;DHT22;3222;48.858;10.128;2024-01-30T01:34:44;5.80;99.90
6379;DHT22;3222;48.858;10.128;2024-01-30T01:37:10;5.70;99.90
6379;DHT22;3222;48.858;10.128;2024-01-30T01:39:36;5.70;99.90
6379;DHT22;3222;48.858;10.128;2024-01-30T01:42:02;5.70;99.90
6379;DHT22;3222;48.858;10.128;2024-01-30T01:44:27;5.70;99.90
6379;DHT22;3222;48.858;10.128;2024-01-30T01:46:54;5.70;99.90
6379;DHT22;3222;48.858;10.128;2024-01-30T01:49:22;5.80;99.90
6379;DHT22;3222;48.858;10.128;2024-01-30T01:51:48;5.80;99.90
6379;DHT22;3222;48.858;10.128;2024-01-30T01:54:15;5.80;99.90
6379;DHT22;3222;48.858;10.128;2024-01-30T01:56:42;5.80;99.90
6379;DHT22;3222;48.858;10.128;2024-01-30T01:59:09;5.90;99.90
6379;DHT22;3222;48.858;10.128;2024-01-30T02:01:36;5.90;99.90
6379;DHT22;3222;48.858;10.128;2024-01-30T02:04:02;6.00;99.90
6379;DHT22;3222;48.858;10.128;2024-01-30T02:06:28;6.00;99.90
6379;DHT22;3222;48.858;10.128;2024-01-30T02:08:54;6.00;99.90
6379;DHT22;3222;48.858;10.128;2024-01-30T02:11:21;6.10;99.90
6379;DHT22;3222;48.858;10.128;2024-01-30T02:13:47;6.10;99.90
6379;DHT22;3222;48.858;10.128;2024-01-30T02:16:13;6.10;99.90
6379;DHT22;3222;48.858;10.128;2024-01-30T02:18:39;6.10;99.90
6379;DHT22;3222;48.858;10.128;2024-01-30T02:21:08;6.20;99.90
6379;DHT22;3222;48.858;10.128;2024-01-30T02:23:34;6.10;99.90
6379;DHT22;3222;48.858;10.128;2024-01-30T02:26:00;6.10;99.90
6379;DHT22;3222;48.858;10.128;2024-01-30T02:28:26;6.10;99.90
6379;DHT22;3222;48.858;10.128;2024-01-30T02:30:53;6.10;99.90
6379;DHT22;3222;48.858;10.128;2024-01-30T02:33:18;6.10;99.90
6379;DHT22;3222;48.858;10.128;2024-01-30T02:35:44;6.10;99.90
6379;DHT22;3222;48.858;10.128;2024-01-30T02:38:10;6.10;99.90
6379;DHT22;3222;48.858;10.128;2024-01-30T02:40:36;6.00;99.90
6379;DHT22;3222;48.858;10.128;2024-01-30T02:43:02;6.00;99.90
6379;DHT22;3222;48.858;10.128;2024-01-30T02:45:28;6.00;99.90
6379;DHT22;3222;48.858;10.128;2024-01-30T02:47:54;6.00;99.90
6379;DHT22;3222;48.858;10.128;2024-01-30T02:50:20;6.00;99.90
6379;DHT22;3222;48.858;10.128;2024-01-30T02:52:45;6.00;99.90
6379;DHT22;3222;48.858;10.128;2024-01-30T02:55:11;5.90;99.90
6379;DHT22;3222;48.858;10.128;2024-01-30T02:57:37;6.00;99.90
6379;DHT22;3222;48.858;10.128;2024-01-30T03:00:04;5.90;99.90
6379;DHT22;3222;48.858;10.128;2024-01-30T03:02:32;5.90;99.90
6379;DHT22;3222;48.858;10.128;2024-01-30T03:04:59;5.90;99.90
6379;DHT22;3222;48.858;10.128;2024-01-30T03:07:24;5.90;99.90
6379;DHT22;3222;48.858;10.128;2024-01-30T03:09:50;5.80;99.90
6379;DHT22;3222;48.858;10.128;2024-01-30T03:12:15;5.80;99.90
6379;DHT22;3222;48.858;10.128;2024-01-30T03:14:41;5.80;99.90
6379;DHT22;3222;48.858;10.128;2024-01-30T03:17:07;5.80;99.90
6379;DHT22;3222;48.858;10.128;2024-01-30T03:19:33;5.70;99.90
6379;DHT22;3222;48.858;10.128;2024-01-30T03:21:59;5.70;99.90
6379;DHT22;3222;48.858;10.128;2024-01-30T03:24:24;5.70;99.90
6379;DHT22;3222;48.858;10.128;2024-01-30T03:26:50;5.70;99.90
6379;DHT22;3222;48.858;10.128;2024-01-30T03:29:16;5.60;99.90
6379;DHT22;3222;48.858;10.128;2024-01-30T03:31:41;5.60;99.90
6379;DHT22;3222;48.858;10.128;2024-01-30T03:34:07;5.60;99.90
6379;DHT22;3222;48.858;10.128;2024-01-30T03:36:33;5.60;99.90
6379;DHT22;3222;48.858;10.128;2024-01-30T03:39:00;5.60;99.90
6379;DHT22;3222;48.858;10.128;2024-01-30T03:41:26;5.60;99.90
6379;DHT22;3222;48.858;10.128;2024-01-30T03:43:52;5.60;99.90
6379;DHT22;3222;48.858;10.128;2024-01-30T03:46:17;5.60;99.90
6379;DHT22;3222;48.858;10.128;2024-01-30T03:48:43;5.60;99.90
6379;DHT22;3222;48.858;10.128;2024-01-30T03:51:09;5.50;99.90
6379;DHT22;3222;48.858;10.128;2024-01-30T03:53:34;5.50;99.90
6379;DHT22;3222;48.858;10.128;2024-01-30T03:56:00;5.50;99.90
6379;DHT22;3222;48.858;10.128;2024-01-30T03:58:26;5.50;99.90
6379;DHT22;3222;48.858;10.128;2024-01-30T04:00:52;5.50;99.90
6379;DHT22;3222;48.858;10.128;2024-01-30T04:03:18;5.50;99.90
6379;DHT22;3222;48.858;10.128;2024-01-30T04:05:43;5.40;99.90
6379;DHT22;3222;48.858;10.128;2024-01-30T04:08:09;5.40;99.90
6379;DHT22;3222;48.858;10.128;2024-01-30T04:10:35;5.40;99.90
6379;DHT22;3222;48.858;10.128;2024-01-30T04:13:01;5.40;99.90
6379;DHT22;3222;48.858;10.128;2024-01-30T04:15:26;5.30;99.90
6379;DHT22;3222;48.858;10.128;2024-01-30T04:17:53;5.30;99.90
6379;DHT22;3222;48.858;10.128;2024-01-30T04:20:19;5.40;99.90
6379;DHT22;3222;48.858;10.128;2024-01-30T04:22:45;5.30;99.90
6379;DHT22;3222;48.858;10.128;2024-01-30T04:25:13;5.30;99.90
6379;DHT22;3222;48.858;10.128;2024-01-30T04:27:39;5.30;99.90
6379;DHT22;3222;48.858;10.128;2024-01-30T04:30:05;5.30;99.90
6379;DHT22;3222;48.858;10.128;2024-01-30T04:32:32;5.30;99.90
6379;DHT22;3222;48.858;10.128;2024-01-30T04:34:58;5.30;99.90
6379;DHT22;3222;48.858;10.128;2024-01-30T04:37:24;5.30;99.90
6379;DHT22;3222;48.858;10.128;2024-01-30T04:39:50;5.30;99.90
6379;DHT22;3222;48.858;10.128;2024-01-30T04:42:16;5.30;99.90
6379;DHT22;3222;48.858;10.128;2024-01-30T04:44:41;5.20;99.90
6379;DHT22;3222;48.858;10.128;2024-01-30T04:47:07;5.20;99.90
6379;DHT22;3222;48.858;10.128;2024-01-30T04:49:34;5.20;99.90
6379;DHT22;3222;48.858;10.128;2024-01-30T04:52:00;5.20;99.90
6379;DHT22;3222;48.858;10.128;2024-01-30T04:54:26;5.20;99.90
6379;DHT22;3222;48.858;10.128;2024-01-30T04:56:52;5.10;99.90
6379;DHT22;3222;48.858;10.128;2024-01-30T04:59:17;5.10;99.90
6379;DHT22;3222;48.858;10.128;2024-01-30T05:01:45;5.10;99.90
6379;DHT22;3222;48.858;10.128;2024-01-30T05:04:10;5.10;99.90
6379;DHT22;3222;48.858;10.128;2024-01-30T05:06:37;5.10;99.90
6379;DHT22;3222;48.858;10.128;2024-01-30T05:09:03;5.10;99.90
6379;DHT22;3222;48.858;10.128;2024-01-30T05:11:31;5.10;99.90
6379;DHT22;3222;48.858;10.128;2024-01-30T05:14:02;5.10;99.90
6379;DHT22;3222;48.858;10.128;2024-01-30T05:16:27;5.10;99.90
6379;DHT22;3222;48.858;10.128;2024-01-30T05:18:53;5.10;99.90
6379;DHT22;3222;48.858;10.128;2024-01-30T05:21:18;5.10;99.90
6379;DHT22;3222;48.858;10.128;2024-01-30T05:23:44;5.10;99.90
6379;DHT22;3222;48.858;10.128;2024-01-30T05:26:10;5.10;99.90
6379;DHT22;3222;48.858;10.128;2024-01-30T05:28:35;5.10;99.90
6379;DHT22;3222;48.858;10.128;2024-01-30T05:31:01;5.10;99.90
6379;DHT22;3222;48.858;10.128;2024-01-30T05:33:28;5.00;99.90
6379;DHT22;3222;48.858;10.128;2024-01-30T05:35:53;5.10;99.90
6379;DHT22;3222;48.858;10.128;2024-01-30T05:38:20;5.10;99.90
6379;DHT22;3222;48.858;10.128;2024-01-30T05:40:46;5.00;99.90
6379;DHT22;3222;48.858;10.128;2024-01-30T05:43:11;5.00;99.90
6379;DHT22;3222;48.858;10.128;2024-01-30T05:45:37;5.00;99.90
6379;DHT22;3222;48.858;10.128;2024-01-30T05:48:03;5.00;99.90
6379;DHT22;3222;48.858;10.128;2024-01-30T05:50:29;5.00;99.90
6379;DHT22;3222;48.858;10.128;2024-01-30T05:52:55;4.90;99.90
6379;DHT22;3222;48.858;10.128;2024-01-30T05:55:21;4.90;99.90
6379;DHT22;3222;48.858;10.128;2024-01-30T05:57:46;4.90;99.90
6379;DHT22;3222;48.858;10.128;2024-01-30T06:00:12;4.90;99.90
6379;DHT22;3222;48.858;10.128;2024-01-30T06:02:38;4.90;99.90
6379;DHT22;3222;48.858;10.128;2024-01-30T06:05:04;4.90;99.90
6379;DHT22;3222;48.858;10.128;2024-01-30T06:07:30;4.90;99.90
6379;DHT22;3222;48.858;10.128;2024-01-30T06:09:55;4.90;99.90
6379;DHT22;3222;48.858;10.128;2024-01-30T06:12:21;4.80;99.90
6379;DHT22;3222;48.858;10.128;2024-01-30T06:14:47;4.90;99.90
6379;DHT22;3222;48.858;10.128;2024-01-30T06:17:12;4.80;99.90
6379;DHT22;3222;48.858;10.128;2024-01-30T06:19:39;4.90;99.90
6379;DHT22;3222;48.858;10.128;2024-01-30T06:22:05;4.90;99.90
6379;DHT22;3222;48.858;10.128;2024-01-30T06:24:30;4.90;99.90
6379;DHT22;3222;48.858;10.128;2024-01-30T06:26:56;4.80;99.90
6379;DHT22;3222;48.858;10.128;2024-01-30T06:29:22;4.80;99.90
6379;DHT22;3222;48.858;10.128;2024-01-30T06:31:50;4.90;99.90
6379;DHT22;3222;48.858;10.128;2024-01-30T06:34:16;4.80;99.90
6379;DHT22;3222;48.858;10.128;2024-01-30T06:36:41;4.80;99.90
6379;DHT22;3222;48.858;10.128;2024-01-30T06:39:07;4.80;99.90
6379;DHT22;3222;48.858;10.128;2024-01-30T06:41:33;4.80;99.90
6379;DHT22;3222;48.858;10.128;2024-01-30T06:43:59;4.80;99.90
6379;DHT22;3222;48.858;10.128;2024-01-30T06:46:25;4.80;99.90
6379;DHT22;3222;48.858;10.128;2024-01-30T06:48:51;4.80;99.90
6379;DHT22;3222;48.858;10.128;2024-01-30T06:51:16;4.80;99.90
6379;DHT22;3222;48.858;10.128;2024-01-30T06:53:42;4.80;99.90
6379;DHT22;3222;48.858;10.128;2024-01-30T06:56:08;4.80;99.90
6379;DHT22;3222;48.858;10.128;2024-01-30T06:58:33;4.80;99.90
6379;DHT22;3222;48.858;10.128;2024-01-30T07:00:59;4.80;99.90
6379;DHT22;3222;48.858;10.128;2024-01-30T07:03:25;4.90;99.90
6379;DHT22;3222;48.858;10.128;2024-01-30T07:05:50;4.90;99.90
6379;DHT22;3222;48.858;10.128;2024-01-30T07:08:17;4.90;99.90
6379;DHT22;3222;48.858;10.128;2024-01-30T07:10:43;4.90;99.90
6379;DHT22;3222;48.858;10.128;2024-01-30T07:13:10;4.90;99.90
6379;DHT22;3222;48.858;10.128;2024-01-30T07:15:36;5.00;99.90
6379;DHT22;3222;48.858;10.128;2024-01-30T07:18:05;5.00;99.90
6379;DHT22;3222;48.858;10.128;2024-01-30T07:20:31;5.00;99.90
6379;DHT22;3222;48.858;10.128;2024-01-30T07:23:00;5.00;99.90
6379;DHT22;3222;48.858;10.128;2024-01-30T07:25:26;5.00;99.90
6379;DHT22;3222;48.858;10.128;2024-01-30T07:27:55;5.10;99.90
6379;DHT22;3222;48.858;10.128;2024-01-30T07:30:21;5.10;99.90
6379;DHT22;3222;48.858;10.128;2024-01-30T07:32:47;5.10;99.90
6379;DHT22;3222;48.858;10.128;2024-01-30T07:35:13;5.20;99.90
6379;DHT22;3222;48.858;10.128;2024-01-30T07:37:39;5.30;99.90
6379;DHT22;3222;48.858;10.128;2024-01-30T07:40:05;5.40;99.90
6379;DHT22;3222;48.858;10.128;2024-01-30T07:42:32;5.50;99.90
6379;DHT22;3222;48.858;10.128;2024-01-30T07:44:58;5.40;99.90
6379;DHT22;3222;48.858;10.128;2024-01-30T07:47:24;5.40;99.90
6379;DHT22;3222;48.858;10.128;2024-01-30T07:49:49;5.40;99.90
6379;DHT22;3222;48.858;10.128;2024-01-30T07:52:15;5.40;99.90
6379;DHT22;3222;48.858;10.128;2024-01-30T07:54:51;5.40;99.90
6379;DHT22;3222;48.858;10.128;2024-01-30T07:57:17;5.40;99.90
6379;DHT22;3222;48.858;10.128;2024-01-30T07:59:43;5.40;99.90
6379;DHT22;3222;48.858;10.128;2024-01-30T08:02:11;5.50;99.90
6379;DHT22;3222;48.858;10.128;2024-01-30T08:04:37;5.50;99.90
6379;DHT22;3222;48.858;10.128;2024-01-30T08:07:02;5.50;99.90
6379;DHT22;3222;48.858;10.128;2024-01-30T08:09:28;5.60;99.90
6379;DHT22;3222;48.858;10.128;2024-01-30T08:11:54;5.60;99.90
6379;DHT22;3222;48.858;10.128;2024-01-30T08:14:19;5.70;99.90
6379;DHT22;3222;48.858;10.128;2024-01-30T08:16:45;5.80;99.90
6379;DHT22;3222;48.858;10.128;2024-01-30T08:19:11;5.80;99.90
6379;DHT22;3222;48.858;10.128;2024-01-30T08:21:36;5.90;99.90
6379;DHT22;3222;48.858;10.128;2024-01-30T08:24:06;5.90;99.90
6379;DHT22;3222;48.858;10.128;2024-01-30T08:26:32;5.90;99.90
6379;DHT22;3222;48.858;10.128;2024-01-30T08:28:58;6.00;99.90
6379;DHT22;3222;48.858;10.128;2024-01-30T08:31:24;6.10;99.90
6379;DHT22;3222;48.858;10.128;2024-01-30T08:33:50;6.10;99.90
6379;DHT22;3222;48.858;10.128;2024-01-30T08:36:16;6.20;99.90
6379;DHT22;3222;48.858;10.128;2024-01-30T08:38:42;6.20;99.90
6379;DHT22;3222;48.858;10.128;2024-01-30T08:41:08;6.30;99.90
6379;DHT22;3222;48.858;10.128;2024-01-30T08:43:34;6.30;99.90
6379;DHT22;3222;48.858;10.128;2024-01-30T08:46:00;6.40;99.90
6379;DHT22;3222;48.858;10.128;2024-01-30T08:48:26;6.40;99.90
6379;DHT22;3222;48.858;10.128;2024-01-30T08:50:53;6.50;99.90
6379;DHT22;3222;48.858;10.128;2024-01-30T08:53:19;6.50;99.90
6379;DHT22;3222;48.858;10.128;2024-01-30T08:55:45;6.60;99.90
6379;DHT22;3222;48.858;10.128;2024-01-30T08:58:11;6.70;99.90
6379;DHT22;3222;48.858;10.128;2024-01-30T09:00:36;6.70;99.90
6379;DHT22;3222;48.858;10.128;2024-01-30T09:03:03;6.80;99.90
6379;DHT22;3222;48.858;10.128;2024-01-30T09:05:29;6.80;99.90
6379;DHT22;3222;48.858;10.128;2024-01-30T09:07:55;6.90;99.90
6379;DHT22;3222;48.858;10.128;2024-01-30T09:10:21;6.90;99.90
6379;DHT22;3222;48.858;10.128;2024-01-30T09:12:47;6.90;99.90
6379;DHT22;3222;48.858;10.128;2024-01-30T09:15:13;6.90;99.90
6379;DHT22;3222;48.858;10.128;2024-01-30T09:17:38;7.00;99.90
6379;DHT22;3222;48.858;10.128;2024-01-30T09:20:05;7.10;99.90
6379;DHT22;3222;48.858;10.128;2024-01-30T09:22:31;7.10;99.90
6379;DHT22;3222;48.858;10.128;2024-01-30T09:24:57;7.20;99.90
6379;DHT22;3222;48.858;10.128;2024-01-30T09:27:23;7.20;99.90
6379;DHT22;3222;48.858;10.128;2024-01-30T09:29:48;7.10;99.90
6379;DHT22;3222;48.858;10.128;2024-01-30T09:32:14;7.20;99.90
6379;DHT22;3222;48.858;10.128;2024-01-30T09:34:40;7.30;99.90
6379;DHT22;3222;48.858;10.128;2024-01-30T09:37:05;7.40;99.90
6379;DHT22;3222;48.858;10.128;2024-01-30T09:39:31;7.40;99.90
6379;DHT22;3222;48.858;10.128;2024-01-30T09:42:09;7.40;99.90
6379;DHT22;3222;48.858;10.128;2024-01-30T09:44:38;7.50;99.90
6379;DHT22;3222;48.858;10.128;2024-01-30T09:47:04;7.40;99.90
6379;DHT22;3222;48.858;10.128;2024-01-30T09:49:32;7.40;99.90
6379;DHT22;3222;48.858;10.128;2024-01-30T09:51:58;7.50;99.90
6379;DHT22;3222;48.858;10.128;2024-01-30T09:54:24;7.60;99.90
6379;DHT22;3222;48.858;10.128;2024-01-30T09:56:49;7.70;99.90
6379;DHT22;3222;48.858;10.128;2024-01-30T09:59:15;7.80;99.90
6379;DHT22;3222;48.858;10.128;2024-01-30T10:01:42;7.80;99.90
6379;DHT22;3222;48.858;10.128;2024-01-30T10:04:07;7.90;99.90
6379;DHT22;3222;48.858;10.128;2024-01-30T10:06:34;8.00;99.90
6379;DHT22;3222;48.858;10.128;2024-01-30T10:09:00;8.00;99.90
6379;DHT22;3222;48.858;10.128;2024-01-30T10:11:25;8.10;99.90
6379;DHT22;3222;48.858;10.128;2024-01-30T10:13:51;8.10;99.90
6379;DHT22;3222;48.858;10.128;2024-01-30T10:16:16;8.20;99.90
6379;DHT22;3222;48.858;10.128;2024-01-30T10:18:42;8.20;99.90
6379;DHT22;3222;48.858;10.128;2024-01-30T10:21:08;8.30;99.90
6379;DHT22;3222;48.858;10.128;2024-01-30T10:23:35;8.20;99.90
6379;DHT22;3222;48.858;10.128;2024-01-30T10:26:04;8.20;99.90
6379;DHT22;3222;48.858;10.128;2024-01-30T10:28:29;8.30;99.90
6379;DHT22;3222;48.858;10.128;2024-01-30T10:30:59;8.30;99.90
6379;DHT22;3222;48.858;10.128;2024-01-30T10:33:26;8.40;99.90
6379;DHT22;3222;48.858;10.128;2024-01-30T10:36:02;8.40;99.90
6379;DHT22;3222;48.858;10.128;2024-01-30T10:38:29;8.40;99.90
6379;DHT22;3222;48.858;10.128;2024-01-30T10:41:00;8.40;99.90
6379;DHT22;3222;48.858;10.128;2024-01-30T10:43:54;8.50;99.90
6379;DHT22;3222;48.858;10.128;2024-01-30T10:46:20;8.50;99.90
6379;DHT22;3222;48.858;10.128;2024-01-30T10:49:07;8.60;99.90
6379;DHT22;3222;48.858;10.128;2024-01-30T10:51:34;8.60;99.90
6379;DHT22;3222;48.858;10.128;2024-01-30T10:54:01;8.70;99.90
6379;DHT22;3222;48.858;10.128;2024-01-30T10:56:29;8.70;99.90
6379;DHT22;3222;48.858;10.128;2024-01-30T10:58:55;8.70;99.90
6379;DHT22;3222;48.858;10.128;2024-01-30T11:01:22;8.90;99.90
6379;DHT22;3222;48.858;10.128;2024-01-30T11:03:50;9.10;99.90
6379;DHT22;3222;48.858;10.128;2024-01-30T11:06:16;9.00;99.90
6379;DHT22;3222;48.858;10.128;2024-01-30T11:08:47;9.00;99.90
6379;DHT22;3222;48.858;10.128;2024-01-30T11:11:25;9.10;99.90
6379;DHT22;3222;48.858;10.128;2024-01-30T11:13:50;9.20;99.90
6379;DHT22;3222;48.858;10.128;2024-01-30T11:16:17;9.30;99.90
6379;DHT22;3222;48.858;10.128;2024-01-30T11:18:42;9.10;99.90
6379;DHT22;3222;48.858;10.128;2024-01-30T11:21:08;9.10;99.90
6379;DHT22;3222;48.858;10.128;2024-01-30T11:23:34;9.10;99.90
6379;DHT22;3222;48.858;10.128;2024-01-30T11:26:01;9.20;99.90
6379;DHT22;3222;48.858;10.128;2024-01-30T11:28:35;9.20;99.90
6379;DHT22;3222;48.858;10.128;2024-01-30T11:31:04;9.20;99.90
6379;DHT22;3222;48.858;10.128;2024-01-30T11:33:30;9.10;99.90
6379;DHT22;3222;48.858;10.128;2024-01-30T11:35:58;9.10;99.90
6379;DHT22;3222;48.858;10.128;2024-01-30T11:38:27;9.20;99.90
6379;DHT22;3222;48.858;10.128;2024-01-30T11:40:54;9.20;99.90
6379;DHT22;3222;48.858;10.128;2024-01-30T11:43:21;9.20;99.90
6379;DHT22;3222;48.858;10.128;2024-01-30T11:45:47;9.20;99.90
6379;DHT22;3222;48.858;10.128;2024-01-30T11:48:13;9.30;99.90
6379;DHT22;3222;48.858;10.128;2024-01-30T11:50:39;9.40;99.90
6379;DHT22;3222;48.858;10.128;2024-01-30T11:53:08;9.40;99.90
6379;DHT22;3222;48.858;10.128;2024-01-30T11:55:34;9.40;99.90
6379;DHT22;3222;48.858;10.128;2024-01-30T11:58:03;9.40;99.90
6379;DHT22;3222;48.858;10.128;2024-01-30T12:00:29;9.40;99.90
6379;DHT22;3222;48.858;10.128;2024-01-30T12:02:56;9.40;99.90
6379;DHT22;3222;48.858;10.128;2024-01-30T12:05:23;9.30;99.90
6379;DHT22;3222;48.858;10.128;2024-01-30T12:07:49;9.30;99.90
6379;DHT22;3222;48.858;10.128;2024-01-30T12:10:15;9.30;99.90
6379;DHT22;3222;48.858;10.128;2024-01-30T12:12:46;9.30;99.90
6379;DHT22;3222;48.858;10.128;2024-01-30T12:15:13;9.40;99.90
6379;DHT22;3222;48.858;10.128;2024-01-30T12:17:39;9.30;99.90
6379;DHT22;3222;48.858;10.128;2024-01-30T12:20:09;9.40;99.90
6379;DHT22;3222;48.858;10.128;2024-01-30T12:22:46;9.30;99.90
6379;DHT22;3222;48.858;10.128;2024-01-30T12:25:20;9.30;99.90
6379;DHT22;3222;48.858;10.128;2024-01-30T12:27:48;9.20;99.90
6379;DHT22;3222;48.858;10.128;2024-01-30T12:30:18;9.10;99.90
6379;DHT22;3222;48.858;10.128;2024-01-30T12:32:45;9.20;99.90
6379;DHT22;3222;48.858;10.128;2024-01-30T12:35:16;9.20;99.90
6379;DHT22;3222;48.858;10.128;2024-01-30T12:37:44;9.30;99.90
6379;DHT22;3222;48.858;10.128;2024-01-30T12:40:10;9.30;99.90
6379;DHT22;3222;48.858;10.128;2024-01-30T12:42:39;9.30;99.90
6379;DHT22;3222;48.858;10.128;2024-01-30T12:45:05;9.30;99.90
6379;DHT22;3222;48.858;10.128;2024-01-30T12:47:31;9.40;99.90
6379;DHT22;3222;48.858;10.128;2024-01-30T12:49:57;9.40;99.90
6379;DHT22;3222;48.858;10.128;2024-01-30T12:52:23;9.40;99.90
6379;DHT22;3222;48.858;10.128;2024-01-30T12:54:50;9.40;99.90
6379;DHT22;3222;48.858;10.128;2024-01-30T12:57:16;9.40;99.90
6379;DHT22;3222;48.858;10.128;2024-01-30T12:59:42;9.60;99.90
6379;DHT22;3222;48.858;10.128;2024-01-30T13:02:08;9.50;99.90
6379;DHT22;3222;48.858;10.128;2024-01-30T13:04:34;9.50;99.90
6379;DHT22;3222;48.858;10.128;2024-01-30T13:07:00;9.50;99.90
6379;DHT22;3222;48.858;10.128;2024-01-30T13:09:26;9.50;99.90
6379;DHT22;3222;48.858;10.128;2024-01-30T13:11:52;9.40;99.90
6379;DHT22;3222;48.858;10.128;2024-01-30T13:14:18;9.50;99.90
6379;DHT22;3222;48.858;10.128;2024-01-30T13:16:44;9.50;99.90
6379;DHT22;3222;48.858;10.128;2024-01-30T13:19:10;9.50;99.90
6379;DHT22;3222;48.858;10.128;2024-01-30T13:21:35;9.50;99.90
6379;DHT22;3222;48.858;10.128;2024-01-30T13:24:01;9.40;99.90
6379;DHT22;3222;48.858;10.128;2024-01-30T13:26:27;9.40;99.90
6379;DHT22;3222;48.858;10.128;2024-01-30T13:28:53;9.40;99.90
6379;DHT22;3222;48.858;10.128;2024-01-30T13:31:18;9.50;99.90
6379;DHT22;3222;48.858;10.128;2024-01-30T13:33:45;9.50;99.90
6379;DHT22;3222;48.858;10.128;2024-01-30T13:36:11;9.50;99.90
6379;DHT22;3222;48.858;10.128;2024-01-30T13:38:37;9.60;99.90
6379;DHT22;3222;48.858;10.128;2024-01-30T13:41:03;9.60;99.90
6379;DHT22;3222;48.858;10.128;2024-01-30T13:43:29;9.80;99.90
6379;DHT22;3222;48.858;10.128;2024-01-30T13:45:54;9.80;99.90
6379;DHT22;3222;48.858;10.128;2024-01-30T13:48:20;9.80;99.90
6379;DHT22;3222;48.858;10.128;2024-01-30T13:50:46;10.00;99.90
6379;DHT22;3222;48.858;10.128;2024-01-30T13:53:11;10.10;99.90
6379;DHT22;3222;48.858;10.128;2024-01-30T13:55:37;10.10;99.90
6379;DHT22;3222;48.858;10.128;2024-01-30T13:58:05;10.30;99.90
6379;DHT22;3222;48.858;10.128;2024-01-30T14:00:31;10.20;99.90
6379;DHT22;3222;48.858;10.128;2024-01-30T14:02:57;10.20;99.90
6379;DHT22;3222;48.858;10.128;2024-01-30T14:05:26;10.10;99.90
6379;DHT22;3222;48.858;10.128;2024-01-30T14:07:53;10.10;99.90
6379;DHT22;3222;48.858;10.128;2024-01-30T14:10:18;10.10;99.90
6379;DHT22;3222;48.858;10.128;2024-01-30T14:12:44;10.20;99.90
6379;DHT22;3222;48.858;10.128;2024-01-30T14:15:10;10.20;99.90
6379;DHT22;3222;48.858;10.128;2024-01-30T14:17:38;10.10;99.90
6379;DHT22;3222;48.858;10.128;2024-01-30T14:20:04;10.10;99.90
6379;DHT22;3222;48.858;10.128;2024-01-30T14:22:31;10.10;99.90
6379;DHT22;3222;48.858;10.128;2024-01-30T14:24:56;10.00;99.90
6379;DHT22;3222;48.858;10.128;2024-01-30T14:27:22;10.00;99.90
6379;DHT22;3222;48.858;10.128;2024-01-30T14:29:48;10.00;99.90
6379;DHT22;3222;48.858;10.128;2024-01-30T14:32:13;9.90;99.90
6379;DHT22;3222;48.858;10.128;2024-01-30T14:34:39;9.90;99.90
6379;DHT22;3222;48.858;10.128;2024-01-30T14:37:05;9.90;99.90
6379;DHT22;3222;48.858;10.128;2024-01-30T14:39:31;9.80;99.90
6379;DHT22;3222;48.858;10.128;2024-01-30T14:41:57;9.80;99.90
6379;DHT22;3222;48.858;10.128;2024-01-30T14:44:23;9.80;99.90
6379;DHT22;3222;48.858;10.128;2024-01-30T14:46:49;9.70;99.90
6379;DHT22;3222;48.858;10.128;2024-01-30T14:49:14;9.70;99.90
6379;DHT22;3222;48.858;10.128;2024-01-30T14:51:41;9.70;99.90
6379;DHT22;3222;48.858;10.128;2024-01-30T14:54:07;9.70;99.90
6379;DHT22;3222;48.858;10.128;2024-01-30T14:56:33;9.70;99.90
6379;DHT22;3222;48.858;10.128;2024-01-30T14:58:58;9.60;99.90
6379;DHT22;3222;48.858;10.128;2024-01-30T15:01:24;9.70;99.90
6379;DHT22;3222;48.858;10.128;2024-01-30T15:03:50;9.60;99.90
6379;DHT22;3222;48.858;10.128;2024-01-30T15:06:18;9.70;99.90
6379;DHT22;3222;48.858;10.128;2024-01-30T15:08:44;9.70;99.90
6379;DHT22;3222;48.858;10.128;2024-01-30T15:11:10;9.50;99.90
6379;DHT22;3222;48.858;10.128;2024-01-30T15:13:36;9.50;99.90
6379;DHT22;3222;48.858;10.128;2024-01-30T15:16:02;9.40;99.90
6379;DHT22;3222;48.858;10.128;2024-01-30T15:18:30;9.40;99.90
6379;DHT22;3222;48.858;10.128;2024-01-30T15:20:56;9.40;99.90
6379;DHT22;3222;48.858;10.128;2024-01-30T15:23:21;9.30;99.90
6379;DHT22;3222;48.858;10.128;2024-01-30T15:25:47;9.30;99.90
6379;DHT22;3222;48.858;10.128;2024-01-30T15:28:13;9.20;99.90
6379;DHT22;3222;48.858;10.128;2024-01-30T15:30:40;9.20;99.90
6379;DHT22;3222;48.858;10.128;2024-01-30T15:33:09;9.20;99.90
6379;DHT22;3222;48.858;10.128;2024-01-30T15:35:35;9.10;99.90
6379;DHT22;3222;48.858;10.128;2024-01-30T15:38:01;9.00;99.90
6379;DHT22;3222;48.858;10.128;2024-01-30T15:40:26;9.00;99.90
6379;DHT22;3222;48.858;10.128;2024-01-30T15:42:52;8.90;99.90
6379;DHT22;3222;48.858;10.128;2024-01-30T15:45:18;8.90;99.90
6379;DHT22;3222;48.858;10.128;2024-01-30T15:47:45;8.90;99.90
6379;DHT22;3222;48.858;10.128;2024-01-30T15:50:13;8.80;99.90
6379;DHT22;3222;48.858;10.128;2024-01-30T15:52:39;8.90;99.90
6379;DHT22;3222;48.858;10.128;2024-01-30T15:55:05;8.80;99.90
6379;DHT22;3222;48.858;10.128;2024-01-30T15:57:30;8.70;99.90